Time;durP1;ratioP1;P1;durP2;ratioP2;P2;SDS_P1;SDS_P2;PMS_P1;PMS_P2;Temp;Humidity;BMP_temperature;BMP_pressure;BME280_temperature;BME280_humidity;BME280_pressure;Samples;Min_cycle;Max_cycle;Signal;HPM_P1;HPM_P2
2020/12/12 00:00:50;;;;;;;45.17;21.77;;;9.60;99.90;;;;;;4920130;29;20288;-88
2020/12/12 00:03:16;;;;;;;54.70;23.17;;;9.70;99.90;;;;;;4936919;29;20183;-88
2020/12/12 00:05:42;;;;;;;53.87;23.07;;;9.70;99.90;;;;;;4919965;29;20176;-89
2020/12/12 00:08:07;;;;;;;48.37;22.73;;;9.60;99.90;;;;;;4920658;29;20173;-89
2020/12/12 00:10:33;;;;;;;42.10;22.80;;;9.70;99.90;;;;;;4904336;29;20173;-89
2020/12/12 00:12:59;;;;;;;53.83;21.23;;;9.70;99.90;;;;;;4920942;29;20246;-88
2020/12/12 00:15:25;;;;;;;40.37;20.93;;;9.60;99.90;;;;;;4920021;29;20628;-89
2020/12/12 00:17:51;;;;;;;55.27;21.40;;;9.70;99.90;;;;;;4919759;29;20243;-89
2020/12/12 00:20:16;;;;;;;47.77;22.17;;;9.70;99.90;;;;;;4920244;29;20177;-88
2020/12/12 00:22:42;;;;;;;50.17;21.30;;;9.50;99.90;;;;;;4937247;29;20180;-87
2020/12/12 00:25:09;;;;;;;46.33;21.67;;;9.60;99.90;;;;;;4912067;29;20613;-89
2020/12/12 00:27:37;;;;;;;49.10;22.07;;;9.80;99.90;;;;;;4918962;29;20531;-89
2020/12/12 00:30:04;;;;;;;45.13;21.90;;;9.50;99.90;;;;;;4920679;29;20169;-89
2020/12/12 00:32:30;;;;;;;41.50;21.63;;;9.50;99.90;;;;;;4920639;29;20250;-88
2020/12/12 00:34:56;;;;;;;44.60;21.70;;;9.70;99.90;;;;;;4919888;29;20168;-89
2020/12/12 00:37:22;;;;;;;42.57;22.00;;;9.40;99.90;;;;;;4919335;29;20185;-87
2020/12/12 00:39:48;;;;;;;43.23;21.07;;;9.40;99.90;;;;;;4919608;29;20373;-89
2020/12/12 00:42:14;;;;;;;51.23;22.13;;;9.30;99.90;;;;;;4919870;29;20220;-89
2020/12/12 00:44:39;;;;;;;49.90;23.67;;;9.40;99.90;;;;;;4919651;29;20656;-89
2020/12/12 00:47:05;;;;;;;58.57;23.87;;;9.40;99.90;;;;;;4919550;29;20180;-90
2020/12/12 00:49:31;;;;;;;47.27;22.33;;;9.50;99.90;;;;;;4919384;29;20179;-89
2020/12/12 00:51:57;;;;;;;50.43;21.00;;;9.50;99.90;;;;;;4919664;29;20212;-88
2020/12/12 00:54:23;;;;;;;45.93;22.60;;;9.60;99.90;;;;;;4919389;29;20251;-87
2020/12/12 00:56:48;;;;;;;48.33;21.27;;;9.60;99.90;;;;;;4919836;29;20186;-90
2020/12/12 00:59:14;;;;;;;47.43;22.70;;;9.60;99.90;;;;;;4920538;29;20177;-88
2020/12/12 01:01:40;;;;;;;50.40;23.17;;;9.80;99.90;;;;;;4920744;29;20200;-88
2020/12/12 01:04:05;;;;;;;40.67;20.67;;;9.60;99.90;;;;;;4919607;29;20173;-88
2020/12/12 01:06:31;;;;;;;41.87;21.53;;;9.50;99.90;;;;;;4919366;29;20191;-87
2020/12/12 01:08:56;;;;;;;47.17;21.57;;;9.40;99.90;;;;;;4919701;29;20641;-89
2020/12/12 01:11:22;;;;;;;52.17;21.87;;;9.50;99.90;;;;;;4936665;29;20212;-89
2020/12/12 01:13:47;;;;;;;45.63;22.13;;;9.50;99.90;;;;;;4919573;29;20173;-90
2020/12/12 01:16:15;;;;;;;50.80;21.90;;;9.50;99.90;;;;;;4921531;29;20224;-89
2020/12/12 01:18:41;;;;;;;43.17;21.47;;;9.60;99.90;;;;;;4922782;29;20204;-89
2020/12/12 01:21:07;;;;;;;64.20;22.37;;;9.50;99.90;;;;;;4922648;29;20176;-89
2020/12/12 01:23:33;;;;;;;51.87;21.57;;;9.60;99.90;;;;;;4922886;29;20227;-89
2020/12/12 01:25:59;;;;;;;53.07;21.70;;;9.40;99.90;;;;;;4939392;29;20203;-89
2020/12/12 01:28:25;;;;;;;51.47;22.73;;;9.30;99.90;;;;;;4939797;29;20251;-88
2020/12/12 01:30:53;;;;;;;56.37;24.83;;;9.50;99.90;;;;;;4922617;29;20172;-90
2020/12/12 01:33:19;;;;;;;54.43;23.23;;;9.60;99.90;;;;;;4939593;29;20200;-89
2020/12/12 01:35:45;;;;;;;52.47;24.40;;;9.80;99.90;;;;;;4922699;29;20260;-89
2020/12/12 01:38:11;;;;;;;64.80;25.43;;;9.80;99.90;;;;;;4922463;29;20212;-88
2020/12/12 01:40:37;;;;;;;65.43;23.47;;;9.90;99.90;;;;;;4922494;29;20215;-87
2020/12/12 01:43:02;;;;;;;52.80;23.47;;;9.60;99.90;;;;;;4939182;29;20215;-87
2020/12/12 01:45:28;;;;;;;63.20;26.45;;;9.40;99.90;;;;;;4937996;29;20413;-87
2020/12/12 01:47:55;;;;;;;57.50;22.90;;;9.40;99.90;;;;;;4921553;29;20188;-88
2020/12/12 01:50:21;;;;;;;57.67;21.67;;;9.30;99.90;;;;;;4921818;29;20180;-86
2020/12/12 01:52:50;;;;;;;57.17;22.10;;;9.40;99.90;;;;;;4921927;29;20204;-88
2020/12/12 01:55:25;;;;;;;54.20;20.90;;;9.40;99.90;;;;;;4921980;29;20227;-88
2020/12/12 01:57:52;;;;;;;66.97;23.30;;;9.50;99.90;;;;;;4921571;29;20172;-88
2020/12/12 02:00:19;;;;;;;42.03;20.40;;;9.60;99.90;;;;;;4921875;29;20228;-87
2020/12/12 02:02:50;;;;;;;50.30;21.77;;;9.50;99.90;;;;;;4922286;29;20175;-88
2020/12/12 02:05:42;;;;;;;58.37;22.30;;;9.60;99.90;;;;;;4921922;29;20679;-88
2020/12/12 02:08:13;;;;;;;58.43;21.77;;;9.40;99.90;;;;;;4921737;29;20184;-87
2020/12/12 02:10:44;;;;;;;67.97;22.37;;;9.40;99.90;;;;;;4921830;29;20176;-88
2020/12/12 02:13:11;;;;;;;57.60;21.57;;;9.40;99.90;;;;;;4921786;29;20200;-88
2020/12/12 02:15:37;;;;;;;62.33;22.53;;;9.60;99.90;;;;;;4921682;29;20180;-88
2020/12/12 02:18:04;;;;;;;70.47;23.97;;;9.80;99.90;;;;;;4921385;29;20667;-88
2020/12/12 02:20:36;;;;;;;63.97;23.57;;;10.00;99.90;;;;;;4921422;29;20232;-88
2020/12/12 02:23:02;;;;;;;61.00;23.60;;;9.80;99.90;;;;;;4921587;29;20629;-88
2020/12/12 02:25:27;;;;;;;69.73;23.93;;;9.80;99.90;;;;;;4921435;29;20178;-87
2020/12/12 02:27:57;;;;;;;67.43;23.33;;;9.90;99.90;;;;;;4920796;29;20177;-87
2020/12/12 02:30:23;;;;;;;64.67;25.33;;;9.80;99.90;;;;;;4921387;29;20180;-88
2020/12/12 02:32:49;;;;;;;61.27;24.23;;;9.90;99.90;;;;;;4921339;29;20208;-88
2020/12/12 02:35:15;;;;;;;60.40;22.63;;;9.80;99.90;;;;;;4921944;29;20240;-88
2020/12/12 02:37:44;;;;;;;57.20;21.67;;;9.70;99.90;;;;;;4921238;29;20172;-88
2020/12/12 02:40:10;;;;;;;68.10;22.67;;;9.70;99.90;;;;;;4921260;29;20172;-88
2020/12/12 02:42:35;;;;;;;47.90;21.57;;;9.90;99.90;;;;;;4921386;29;20564;-90
2020/12/12 02:45:01;;;;;;;61.27;21.90;;;10.10;99.90;;;;;;4921122;29;20200;-88
2020/12/12 02:47:27;;;;;;;55.73;20.90;;;10.00;99.90;;;;;;4920829;29;20219;-88
2020/12/12 02:50:12;;;;;;;48.60;17.43;;;9.80;99.90;;;;;;4921116;29;20173;-89
2020/12/12 02:52:39;;;;;;;61.60;17.97;;;9.70;99.90;;;;;;4921034;29;20207;-88
2020/12/12 02:55:06;;;;;;;45.27;16.23;;;9.60;99.90;;;;;;4937669;29;20220;-88
2020/12/12 02:57:36;;;;;;;46.17;16.50;;;9.50;99.90;;;;;;4937663;29;20213;-89
2020/12/12 03:00:06;;;;;;;54.33;18.23;;;9.50;99.90;;;;;;4920877;29;20173;-88
2020/12/12 03:02:32;;;;;;;39.03;16.10;;;9.60;99.90;;;;;;4920810;29;20179;-88
2020/12/12 03:04:58;;;;;;;39.43;16.33;;;9.70;99.90;;;;;;4937747;29;20161;-88
2020/12/12 03:07:23;;;;;;;43.77;16.17;;;9.60;99.90;;;;;;4937837;29;20169;-89
2020/12/12 03:09:50;;;;;;;48.73;15.43;;;9.80;99.90;;;;;;4920685;29;20172;-88
2020/12/12 03:12:15;;;;;;;36.17;14.27;;;9.80;99.90;;;;;;4920591;29;20201;-88
2020/12/12 03:14:41;;;;;;;46.00;15.87;;;9.80;99.90;;;;;;4920675;29;20165;-89
2020/12/12 03:17:09;;;;;;;53.87;14.83;;;9.80;99.90;;;;;;4920195;29;20176;-89
2020/12/12 03:19:38;;;;;;;52.40;15.63;;;9.90;99.90;;;;;;4920564;29;20268;-88
2020/12/12 03:22:05;;;;;;;54.03;16.70;;;9.80;99.90;;;;;;4937408;29;20172;-88
2020/12/12 03:24:32;;;;;;;45.77;15.97;;;9.90;99.90;;;;;;4920653;29;20212;-89
2020/12/12 03:26:57;;;;;;;53.33;15.10;;;9.90;99.90;;;;;;4937220;29;20172;-88
2020/12/12 03:29:23;;;;;;;47.37;16.63;;;10.10;99.90;;;;;;4920370;29;20579;-88
2020/12/12 03:31:49;;;;;;;53.77;18.23;;;10.30;99.90;;;;;;4937352;29;20195;-88
2020/12/12 03:34:14;;;;;;;61.63;19.00;;;10.30;99.90;;;;;;4920182;29;20172;-88
2020/12/12 03:36:40;;;;;;;51.43;18.47;;;10.30;99.90;;;;;;4904440;29;20183;-90
2020/12/12 03:39:06;;;;;;;44.07;19.13;;;10.30;99.90;;;;;;4919799;29;20172;-88
2020/12/12 03:41:31;;;;;;;49.53;19.23;;;10.10;99.90;;;;;;4920543;29;20177;-89
2020/12/12 03:43:58;;;;;;;60.93;19.50;;;10.00;99.90;;;;;;4920433;29;20192;-88
2020/12/12 03:46:23;;;;;;;50.97;19.47;;;9.90;99.90;;;;;;4920082;29;20180;-89
2020/12/12 03:48:52;;;;;;;50.17;18.93;;;10.10;99.90;;;;;;4920183;29;20165;-89
2020/12/12 03:51:17;;;;;;;45.70;18.77;;;10.00;99.90;;;;;;4920287;29;20192;-89
2020/12/12 03:53:43;;;;;;;52.67;19.40;;;10.00;99.90;;;;;;4920258;29;20579;-90
2020/12/12 03:56:09;;;;;;;55.80;18.70;;;10.10;99.90;;;;;;4919958;29;20263;-89
2020/12/12 03:58:34;;;;;;;41.33;19.00;;;10.50;99.90;;;;;;4936845;29;20177;-89
2020/12/12 04:01:03;;;;;;;56.53;18.90;;;10.50;99.90;;;;;;4920015;29;20294;-89
2020/12/12 04:03:28;;;;;;;53.93;18.90;;;10.30;99.90;;;;;;4920083;29;20212;-89
2020/12/12 04:05:57;;;;;;;56.50;20.30;;;10.30;99.90;;;;;;4920183;29;20164;-90
2020/12/12 04:08:25;;;;;;;59.63;20.50;;;10.60;99.90;;;;;;4919837;29;20169;-90
2020/12/12 04:11:11;;;;;;;57.83;20.00;;;10.40;99.90;;;;;;4920070;29;20177;-89
2020/12/12 04:13:37;;;;;;;53.23;19.50;;;10.30;99.90;;;;;;4906919;29;20200;-90
2020/12/12 04:16:05;;;;;;;53.10;19.33;;;10.30;99.90;;;;;;4920052;29;20228;-89
2020/12/12 04:18:31;;;;;;;59.90;21.43;;;9.90;99.90;;;;;;4919521;29;20176;-89
2020/12/12 04:20:57;;;;;;;49.40;19.43;;;9.80;99.90;;;;;;4919971;29;20164;-89
2020/12/12 04:23:22;;;;;;;57.33;18.93;;;9.60;99.90;;;;;;4936969;29;20205;-90
2020/12/12 04:25:48;;;;;;;48.53;19.33;;;9.60;99.90;;;;;;4936962;29;20165;-88
2020/12/12 04:28:13;;;;;;;53.97;19.03;;;9.60;99.90;;;;;;4919694;29;20183;-89
2020/12/12 04:30:39;;;;;;;48.73;18.07;;;9.70;99.90;;;;;;4919708;29;20236;-88
2020/12/12 04:33:05;;;;;;;45.83;19.13;;;9.60;99.90;;;;;;4919723;29;20208;-88
2020/12/12 04:35:30;;;;;;;50.67;17.63;;;9.50;99.90;;;;;;4919706;29;20647;-88
2020/12/12 04:37:56;;;;;;;52.00;17.87;;;9.50;99.90;;;;;;4919714;29;20228;-88
2020/12/12 04:40:22;;;;;;;43.00;16.23;;;9.50;99.90;;;;;;4919813;29;20209;-89
2020/12/12 04:42:48;;;;;;;49.73;16.57;;;9.40;99.90;;;;;;4919816;29;20181;-88
2020/12/12 04:45:20;;;;;;;44.20;16.70;;;9.30;99.90;;;;;;4918954;29;20203;-88
2020/12/12 04:47:49;;;;;;;45.23;16.23;;;9.30;99.90;;;;;;4936344;29;20161;-88
2020/12/12 04:50:28;;;;;;;49.27;17.77;;;9.50;99.90;;;;;;4920507;29;20169;-89
2020/12/12 04:52:55;;;;;;;43.63;15.73;;;9.60;99.90;;;;;;4923261;29;20200;-88
2020/12/12 04:55:23;;;;;;;43.47;16.10;;;9.50;99.90;;;;;;4922988;29;20213;-88
2020/12/12 04:57:52;;;;;;;48.07;16.43;;;9.40;99.90;;;;;;4923353;29;20179;-88
2020/12/12 05:00:19;;;;;;;50.53;17.27;;;9.30;99.90;;;;;;4923185;29;20247;-88
2020/12/12 05:02:46;;;;;;;40.77;16.07;;;9.50;99.90;;;;;;4923927;29;20500;-88
2020/12/12 05:05:12;;;;;;;46.87;16.63;;;9.50;99.90;;;;;;4922535;29;20184;-89
2020/12/12 05:07:40;;;;;;;35.07;15.67;;;9.40;99.90;;;;;;4922755;29;20181;-88
2020/12/12 05:10:06;;;;;;;41.30;15.77;;;9.30;99.90;;;;;;4923106;29;20173;-88
2020/12/12 05:12:36;;;;;;;39.47;15.53;;;9.50;99.90;;;;;;4923055;29;20676;-88
2020/12/12 05:15:02;;;;;;;42.47;16.23;;;9.70;99.90;;;;;;4922932;29;20523;-88
2020/12/12 05:17:28;;;;;;;44.00;16.70;;;9.80;99.90;;;;;;4925168;29;20207;-89
2020/12/12 05:19:53;;;;;;;47.37;16.03;;;9.80;99.90;;;;;;4925475;29;20164;-88
2020/12/12 05:22:19;;;;;;;46.37;15.00;;;9.80;99.90;;;;;;4924734;29;20677;-88
2020/12/12 05:24:45;;;;;;;44.13;15.23;;;9.60;99.90;;;;;;4925953;29;20232;-88
2020/12/12 05:27:11;;;;;;;42.07;16.13;;;9.60;99.90;;;;;;4922881;29;20181;-88
2020/12/12 05:29:37;;;;;;;45.63;16.53;;;9.60;99.90;;;;;;4922579;29;20173;-89
2020/12/12 05:32:04;;;;;;;51.37;16.33;;;9.70;99.90;;;;;;4922592;29;20212;-89
2020/12/12 05:34:32;;;;;;;51.53;19.20;;;9.80;99.90;;;;;;4939323;29;20177;-89
2020/12/12 05:36:58;;;;;;;75.93;26.23;;;9.80;99.90;;;;;;4939532;29;20632;-88
2020/12/12 05:39:26;;;;;;;53.93;18.60;;;10.10;99.90;;;;;;4922637;29;20165;-89
2020/12/12 05:41:52;;;;;;;47.90;17.93;;;10.40;99.90;;;;;;4922401;29;20180;-89
2020/12/12 05:44:19;;;;;;;51.63;16.77;;;10.40;99.90;;;;;;4921499;29;20203;-88
2020/12/12 05:46:45;;;;;;;59.43;23.40;;;10.40;99.90;;;;;;4921976;29;20265;-89
2020/12/12 05:49:12;;;;;;;60.63;27.30;;;10.40;99.90;;;;;;4922234;29;20533;-88
2020/12/12 05:51:39;;;;;;;46.93;19.90;;;10.20;99.90;;;;;;4922272;29;20614;-88
2020/12/12 05:54:05;;;;;;;54.07;18.43;;;10.10;99.90;;;;;;4921586;29;20212;-88
2020/12/12 05:56:31;;;;;;;60.17;18.50;;;9.80;99.90;;;;;;4922039;29;20236;-87
2020/12/12 05:58:58;;;;;;;47.67;17.43;;;9.70;99.90;;;;;;4922325;29;20181;-88
2020/12/12 06:01:26;;;;;;;56.33;16.97;;;9.70;99.90;;;;;;4921169;29;20312;-89
2020/12/12 06:04:14;;;;;;;53.97;16.50;;;9.60;99.90;;;;;;4921920;29;20519;-89
2020/12/12 06:06:47;;;;;;;50.03;16.13;;;9.60;99.90;;;;;;4921769;29;20254;-88
2020/12/12 06:09:17;;;;;;;43.73;16.67;;;9.70;99.90;;;;;;4939030;29;20200;-87
2020/12/12 06:11:45;;;;;;;48.67;17.03;;;9.80;99.90;;;;;;4938351;29;20204;-88
2020/12/12 06:14:15;;;;;;;46.83;16.23;;;9.70;99.90;;;;;;4937719;29;20180;-88
2020/12/12 06:16:43;;;;;;;51.57;16.00;;;9.80;99.90;;;;;;4938471;29;20219;-89
2020/12/12 06:19:13;;;;;;;50.30;16.57;;;9.70;99.90;;;;;;4905823;29;20173;-88
2020/12/12 06:21:46;;;;;;;42.87;16.20;;;9.90;99.90;;;;;;4921630;29;20640;-88
2020/12/12 06:24:15;;;;;;;52.60;17.60;;;10.00;99.90;;;;;;4921484;29;20168;-88
2020/12/12 06:26:53;;;;;;;58.93;18.07;;;10.00;99.90;;;;;;4938279;29;20183;-89
2020/12/12 06:29:20;;;;;;;59.33;20.90;;;10.20;99.90;;;;;;4921758;29;20251;-88
2020/12/12 06:31:46;;;;;;;61.13;19.37;;;10.30;99.90;;;;;;4937739;29;20255;-89
2020/12/12 06:34:13;;;;;;;60.60;21.87;;;10.30;99.90;;;;;;4921440;29;20628;-88
2020/12/12 06:36:46;;;;;;;56.63;19.33;;;10.30;99.90;;;;;;4938327;29;20234;-88
2020/12/12 06:39:25;;;;;;;61.03;19.77;;;10.10;99.90;;;;;;4921632;29;20169;-89
2020/12/12 06:41:57;;;;;;;58.30;19.30;;;10.30;99.90;;;;;;4921201;29;20183;-89
2020/12/12 06:44:41;;;;;;;60.83;19.87;;;10.10;99.90;;;;;;4921252;29;20723;-89
2020/12/12 06:47:08;;;;;;;65.43;21.13;;;9.90;99.90;;;;;;4921664;29;20179;-88
2020/12/12 06:49:35;;;;;;;74.13;21.90;;;9.70;99.90;;;;;;4920981;29;20176;-87
2020/12/12 06:52:02;;;;;;;87.97;23.27;;;9.70;99.90;;;;;;4920405;29;20193;-89
2020/12/12 06:54:28;;;;;;;84.47;25.33;;;9.70;99.90;;;;;;4937710;29;20284;-88
2020/12/12 06:56:54;;;;;;;89.00;24.30;;;9.70;99.90;;;;;;4920865;29;20636;-90
2020/12/12 06:59:23;;;;;;;82.17;25.03;;;9.80;99.90;;;;;;4938056;29;20165;-89
2020/12/12 07:01:54;;;;;;;72.43;23.00;;;9.70;99.90;;;;;;4936667;29;20216;-89
2020/12/12 07:04:27;;;;;;;89.40;24.40;;;9.60;99.90;;;;;;4920649;29;20215;-89
2020/12/12 07:07:09;;;;;;;71.53;22.17;;;9.60;99.90;;;;;;4920880;29;20215;-88
2020/12/12 07:09:37;;;;;;;82.00;23.73;;;9.50;99.90;;;;;;4920951;29;20183;-88
2020/12/12 07:12:04;;;;;;;75.87;23.37;;;9.60;99.90;;;;;;4920477;29;20208;-88
2020/12/12 07:14:29;;;;;;;83.37;25.63;;;9.60;99.90;;;;;;4936234;29;20173;-86
2020/12/12 07:16:58;;;;;;;92.47;25.30;;;9.50;99.90;;;;;;4937361;29;20720;-88
2020/12/12 07:19:40;;;;;;;91.43;25.97;;;9.40;99.90;;;;;;4937781;29;20165;-88
2020/12/12 07:22:11;;;;;;;99.10;26.33;;;9.40;99.90;;;;;;4937327;29;20180;-88
2020/12/12 07:24:38;;;;;;;86.90;25.57;;;9.30;99.90;;;;;;4936900;29;20172;-88
2020/12/12 07:27:05;;;;;;;81.97;25.67;;;9.30;99.90;;;;;;4937387;29;20181;-86
2020/12/12 07:29:31;;;;;;;92.67;27.03;;;9.30;99.90;;;;;;4920152;29;20729;-86
2020/12/12 07:31:57;;;;;;;89.30;25.77;;;9.20;99.90;;;;;;4920043;29;20613;-87
2020/12/12 07:34:25;;;;;;;100.20;30.13;;;9.30;99.90;;;;;;4919821;29;20220;-87
2020/12/12 07:37:04;;;;;;;93.33;26.60;;;9.30;99.90;;;;;;4920018;29;20172;-88
2020/12/12 07:39:35;;;;;;;100.67;30.13;;;9.40;99.90;;;;;;4917237;29;20821;-88
2020/12/12 07:42:05;;;;;;;94.03;28.57;;;9.40;99.90;;;;;;4920071;29;20177;-88
2020/12/12 07:44:32;;;;;;;91.57;28.00;;;9.30;99.90;;;;;;4919690;29;20201;-89
2020/12/12 07:46:59;;;;;;;101.13;28.07;;;9.30;99.90;;;;;;4920059;29;20173;-87
2020/12/12 07:49:24;;;;;;;107.27;28.73;;;9.50;99.90;;;;;;4920121;29;20204;-88
2020/12/12 07:52:08;;;;;;;131.57;37.43;;;9.50;99.90;;;;;;4918960;29;20484;-88
2020/12/12 07:54:40;;;;;;;115.73;32.30;;;9.90;99.90;;;;;;4919634;29;20216;-89
2020/12/12 07:57:09;;;;;;;120.13;33.75;;;9.80;99.90;;;;;;4935780;29;20436;-88
2020/12/12 07:59:35;;;;;;;118.03;32.30;;;9.40;99.90;;;;;;4919985;29;20169;-88
2020/12/12 08:02:03;;;;;;;115.27;32.87;;;9.50;99.90;;;;;;4920121;29;20637;-89
2020/12/12 08:04:29;;;;;;;103.57;29.90;;;9.60;99.90;;;;;;4919886;29;20323;-88
2020/12/12 08:06:55;;;;;;;101.40;28.50;;;9.70;99.90;;;;;;4919774;29;20230;-88
2020/12/12 08:09:22;;;;;;;88.00;27.90;;;9.60;99.90;;;;;;4919911;29;20231;-87
2020/12/12 08:11:59;;;;;;;84.00;28.47;;;9.60;99.90;;;;;;4919843;29;20211;-88
2020/12/12 08:14:31;;;;;;;127.78;38.05;;;9.50;99.90;;;;;;4935377;29;20951;-89
2020/12/12 08:17:00;;;;;;;114.53;33.73;;;9.60;99.90;;;;;;4936778;29;20169;-88
2020/12/12 08:19:32;;;;;;;117.93;33.03;;;9.70;99.90;;;;;;4936821;29;20176;-88
2020/12/12 08:22:19;;;;;;;140.63;38.92;;;9.80;99.90;;;;;;4919018;29;20448;-88
2020/12/12 08:24:45;;;;;;;126.53;33.33;;;9.90;99.90;;;;;;4921118;29;20168;-89
2020/12/12 08:27:25;;;;;;;108.13;31.53;;;9.70;99.90;;;;;;4923869;29;20174;-88
2020/12/12 08:29:51;;;;;;;136.70;38.47;;;9.60;99.90;;;;;;4923002;29;20445;-88
2020/12/12 08:32:32;;;;;;;110.03;32.77;;;9.70;99.90;;;;;;4923437;29;20220;-89
2020/12/12 08:35:25;;;;;;;107.03;32.73;;;9.70;99.90;;;;;;4923592;29;20195;-89
2020/12/12 08:37:59;;;;;;;131.50;40.30;;;9.70;99.90;;;;;;4920593;29;20805;-87
2020/12/12 08:40:31;;;;;;;99.60;31.73;;;9.80;99.90;;;;;;4923480;29;20529;-87
2020/12/12 08:42:59;;;;;;;91.37;31.43;;;9.50;99.90;;;;;;4923169;29;20192;-88
2020/12/12 08:45:28;;;;;;;101.83;29.53;;;9.30;99.90;;;;;;4923179;29;20283;-87
2020/12/12 08:48:07;;;;;;;89.57;27.83;;;9.40;99.90;;;;;;4923066;29;20169;-87
2020/12/12 08:50:56;;;;;;;90.23;28.40;;;9.40;99.90;;;;;;4923300;29;20644;-88
2020/12/12 08:53:41;;;;;;;85.50;25.60;;;9.40;99.90;;;;;;4922618;29;20203;-88
2020/12/12 08:56:22;;;;;;;94.00;26.30;;;9.30;99.90;;;;;;4923337;29;20169;-88
2020/12/12 08:58:53;;;;;;;88.37;25.63;;;9.40;99.90;;;;;;4939126;29;20252;-88
2020/12/12 09:01:35;;;;;;;86.30;26.00;;;9.40;99.90;;;;;;4923029;29;20169;-88
2020/12/12 09:04:10;;;;;;;77.20;25.90;;;9.50;99.90;;;;;;4939074;29;20696;-89
2020/12/12 09:06:41;;;;;;;81.37;26.93;;;9.50;99.90;;;;;;4939250;29;20172;-88
2020/12/12 09:09:23;;;;;;;75.40;25.53;;;9.70;99.90;;;;;;4939528;29;20187;-87
2020/12/12 09:11:57;;;;;;;83.17;25.53;;;9.60;99.90;;;;;;4938742;29;20295;-87
2020/12/12 09:14:24;;;;;;;89.47;26.33;;;9.50;99.90;;;;;;4939642;29;20533;-89
2020/12/12 09:17:01;;;;;;;78.82;25.77;;;9.50;99.90;;;;;;4922658;29;20790;-88
2020/12/12 09:19:27;;;;;;;76.67;27.23;;;9.40;99.90;;;;;;4923086;29;20199;-87
2020/12/12 09:21:55;;;;;;;82.43;26.70;;;9.40;99.90;;;;;;4922893;29;20264;-88
2020/12/12 09:24:22;;;;;;;78.03;27.07;;;9.50;99.90;;;;;;4939490;29;20199;-87
2020/12/12 09:26:50;;;;;;;108.43;33.93;;;9.40;99.90;;;;;;4939221;29;20782;-88
2020/12/12 09:29:16;;;;;;;107.03;37.08;;;9.50;99.90;;;;;;4938148;29;20496;-88
2020/12/12 09:31:42;;;;;;;96.83;33.03;;;9.80;99.90;;;;;;4923061;29;20220;-89
2020/12/12 09:34:08;;;;;;;85.33;30.27;;;9.70;99.90;;;;;;4939204;29;20188;-88
2020/12/12 09:36:34;;;;;;;78.47;28.57;;;9.60;99.90;;;;;;4938471;29;20180;-89
2020/12/12 09:38:59;;;;;;;85.13;27.67;;;9.60;99.90;;;;;;4939630;29;20518;-89
2020/12/12 09:41:25;;;;;;;89.73;26.87;;;9.50;99.90;;;;;;4922348;29;20252;-89
2020/12/12 09:43:51;;;;;;;92.93;33.78;;;9.40;99.90;;;;;;4938533;29;20492;-89
2020/12/12 09:46:18;;;;;;;75.03;28.27;;;9.40;99.90;;;;;;4922251;29;20204;-88
2020/12/12 09:48:45;;;;;;;86.77;29.43;;;9.40;99.90;;;;;;4921944;29;20172;-88
2020/12/12 09:51:11;;;;;;;75.53;26.97;;;9.40;99.90;;;;;;4922629;29;20636;-93
2020/12/12 09:53:38;;;;;;;89.60;31.02;;;9.70;99.90;;;;;;4922260;29;20457;-94
2020/12/12 09:56:04;;;;;;;85.43;28.33;;;9.80;99.90;;;;;;4922369;29;20598;-93
2020/12/12 09:58:31;;;;;;;85.97;27.80;;;9.70;99.90;;;;;;4922417;29;20169;-93
2020/12/12 10:00:56;;;;;;;83.50;28.00;;;9.60;99.90;;;;;;4922904;29;20236;-93
2020/12/12 10:03:22;;;;;;;73.90;28.00;;;9.60;99.90;;;;;;4922469;29;20180;-94
2020/12/12 10:05:48;;;;;;;77.47;27.50;;;9.50;99.90;;;;;;4923172;29;20184;-94
2020/12/12 10:08:13;;;;;;;80.03;26.07;;;9.60;99.90;;;;;;4922353;29;20308;-93
2020/12/12 10:10:39;;;;;;;68.30;26.53;;;9.60;99.90;;;;;;4922416;29;20173;-93
2020/12/12 10:13:05;;;;;;;79.83;27.40;;;9.60;99.90;;;;;;4921676;29;20216;-93
2020/12/12 10:15:33;;;;;;;76.10;26.13;;;9.50;99.90;;;;;;4921754;29;20168;-94
2020/12/12 10:17:59;;;;;;;70.37;27.70;;;9.60;99.90;;;;;;4921827;29;20244;-93
2020/12/12 10:20:25;;;;;;;74.93;27.20;;;9.60;99.90;;;;;;4938850;29;20259;-93
2020/12/12 10:22:51;;;;;;;73.57;27.37;;;9.80;99.90;;;;;;4939053;29;20633;-93
2020/12/12 10:25:17;;;;;;;68.87;27.50;;;10.00;99.90;;;;;;4921508;29;20173;-94
2020/12/12 10:27:44;;;;;;;71.60;27.40;;;9.80;99.90;;;;;;4922440;29;20183;-96
2020/12/12 10:30:12;;;;;;;70.37;27.47;;;9.90;99.90;;;;;;4922011;29;20177;-93
2020/12/12 10:32:40;;;;;;;66.90;27.47;;;10.00;99.90;;;;;;4921336;29;20204;-93
2020/12/12 10:35:08;;;;;;;60.40;25.63;;;10.00;99.90;;;;;;4921942;29;20192;-92
2020/12/12 10:37:34;;;;;;;75.57;28.03;;;10.10;99.90;;;;;;4922051;29;20173;-94
2020/12/12 10:40:14;;;;;;;59.13;26.00;;;10.20;99.90;;;;;;4922560;29;20228;-93
2020/12/12 10:42:40;;;;;;;61.47;26.43;;;10.00;99.90;;;;;;4921965;29;20172;-94
2020/12/12 10:45:10;;;;;;;68.83;25.10;;;10.10;99.90;;;;;;4938577;29;20200;-92
2020/12/12 10:47:36;;;;;;;62.47;26.20;;;10.10;99.90;;;;;;4922306;29;20220;-94
2020/12/12 10:50:02;;;;;;;60.50;26.93;;;10.10;99.90;;;;;;4923076;29;20169;-93
2020/12/12 10:52:28;;;;;;;67.70;26.20;;;10.10;99.90;;;;;;4924405;29;20200;-94
2020/12/12 10:54:55;;;;;;;70.70;27.53;;;9.90;99.90;;;;;;4925688;29;20578;-94
2020/12/12 10:57:20;;;;;;;64.23;26.70;;;10.00;99.90;;;;;;4931594;29;20628;-94
2020/12/12 10:59:49;;;;;;;68.03;27.27;;;10.00;99.90;;;;;;4941765;29;20171;-94
2020/12/12 11:02:14;;;;;;;71.47;31.42;;;10.00;99.90;;;;;;4937651;29;20432;-93
2020/12/12 11:04:41;;;;;;;73.63;30.37;;;10.30;99.90;;;;;;4938729;29;20171;-93
2020/12/12 11:07:08;;;;;;;60.17;26.67;;;10.60;99.90;;;;;;4934930;29;20173;-93
2020/12/12 11:12:20;;;;;;;67.13;31.38;;;10.40;99.90;;;;;;4928350;29;20549;-92
2020/12/12 11:14:48;;;;;;;65.30;27.90;;;10.50;99.90;;;;;;4924984;29;20209;-95
2020/12/12 11:17:16;;;;;;;62.87;27.70;;;10.70;99.90;;;;;;4914667;29;20172;-94
2020/12/12 11:19:42;;;;;;;62.17;26.07;;;10.70;99.90;;;;;;4928845;29;20164;-95
2020/12/12 11:22:09;;;;;;;66.77;26.93;;;10.80;99.90;;;;;;4944763;29;20183;-95
2020/12/12 11:24:41;;;;;;;57.23;26.23;;;10.70;99.90;;;;;;4931644;29;20165;-93
2020/12/12 11:27:10;;;;;;;60.90;26.90;;;10.50;99.90;;;;;;4912132;29;20296;-94
2020/12/12 11:29:35;;;;;;;65.93;27.47;;;10.50;99.90;;;;;;4926679;29;20200;-94
2020/12/12 11:32:01;;;;;;;60.47;26.37;;;10.60;99.90;;;;;;4923090;29;20567;-94
2020/12/12 11:34:36;;;;;;;54.30;26.17;;;10.80;99.90;;;;;;4927610;29;20199;-94
2020/12/12 11:39:39;;;;;;;59.97;25.53;;;10.50;99.90;;;;;;4933166;29;20181;-94
2020/12/12 11:47:36;;;;;;;54.77;24.60;;;10.70;99.90;;;;;;4939486;29;20207;-93
2020/12/12 11:50:03;;;;;;;61.60;24.47;;;10.90;99.90;;;;;;4922039;29;20264;-92
2020/12/12 11:52:29;;;;;;;61.37;25.60;;;10.80;99.90;;;;;;4924958;29;20211;-92
2020/12/12 11:54:54;;;;;;;59.43;24.87;;;10.80;99.90;;;;;;4922810;29;20291;-91
2020/12/12 11:57:22;;;;;;;61.70;24.73;;;10.90;99.90;;;;;;4920302;29;20180;-91
2020/12/12 11:59:48;;;;;;;64.30;27.40;;;10.90;99.90;;;;;;4921487;29;20164;-93
2020/12/12 12:02:14;;;;;;;55.40;24.03;;;11.10;99.90;;;;;;4937555;29;20552;-93
2020/12/12 12:04:39;;;;;;;57.07;25.33;;;11.20;99.90;;;;;;4937307;29;20173;-92
2020/12/12 12:07:06;;;;;;;61.03;25.80;;;11.20;99.90;;;;;;4920233;29;20169;-92
2020/12/12 12:09:42;;;;;;;56.20;25.33;;;11.10;99.90;;;;;;4937491;29;20220;-92
2020/12/12 12:12:08;;;;;;;63.53;26.23;;;11.20;99.90;;;;;;4937915;29;20223;-93
2020/12/12 12:14:36;;;;;;;57.07;25.27;;;11.30;99.90;;;;;;4937425;29;20184;-91
2020/12/12 12:17:02;;;;;;;64.63;27.23;;;11.30;99.90;;;;;;4934936;29;20251;-90
2020/12/12 12:19:30;;;;;;;60.23;25.20;;;11.30;99.90;;;;;;4920247;29;20616;-89
2020/12/12 12:21:59;;;;;;;55.63;25.03;;;11.40;99.90;;;;;;4936727;29;20520;-89
2020/12/12 12:24:25;;;;;;;57.07;25.87;;;11.20;99.90;;;;;;4919752;29;20239;-88
2020/12/12 12:26:50;;;;;;;60.83;26.30;;;11.30;99.90;;;;;;4919582;29;20536;-87
2020/12/12 12:29:20;;;;;;;51.57;24.13;;;11.40;99.90;;;;;;4920430;29;20180;-90
2020/12/12 12:31:48;;;;;;;59.57;26.63;;;11.40;99.90;;;;;;4920255;29;20188;-87
2020/12/12 12:34:14;;;;;;;54.97;24.77;;;11.40;99.90;;;;;;4919789;29;20177;-88
2020/12/12 12:36:40;;;;;;;55.63;24.87;;;11.50;99.90;;;;;;4936549;29;20176;-87
2020/12/12 12:39:08;;;;;;;51.23;23.53;;;11.40;99.90;;;;;;4935344;29;20601;-87
2020/12/12 12:41:35;;;;;;;52.93;25.20;;;11.50;99.90;;;;;;4919640;29;20192;-87
2020/12/12 12:44:02;;;;;;;58.22;26.20;;;11.30;99.90;;;;;;4919132;29;20201;-87
2020/12/12 12:46:33;;;;;;;59.00;24.93;;;11.40;99.90;;;;;;4919176;29;20161;-88
2020/12/12 12:48:59;;;;;;;58.95;26.42;;;11.30;99.90;;;;;;4936578;29;20235;-88